createdAt,value
2023-03-25T04:55:54.785Z,9.80
2023-03-25T04:58:23.001Z,9.80
2023-03-25T05:00:52.823Z,9.80
2023-03-25T05:03:24.067Z,9.80
2023-03-25T05:05:52.844Z,9.80
2023-03-25T05:08:22.609Z,9.80
2023-03-25T05:10:51.138Z,9.70
2023-03-25T05:13:22.078Z,9.70
2023-03-25T05:15:50.022Z,9.70
2023-03-25T05:18:18.545Z,9.60
2023-03-25T09:24:27.960Z,10.50
2023-03-25T09:26:55.986Z,10.80
2023-03-25T09:29:25.588Z,10.90
2023-03-25T09:54:28.823Z,10.70
2023-03-25T09:57:00.422Z,10.90
2023-03-25T10:12:16.064Z,11.20
2023-03-25T10:15:02.163Z,11.40
2023-03-25T10:17:42.939Z,11.50
2023-03-25T10:20:19.002Z,11.80
2023-03-25T10:30:41.796Z,11.50
2023-03-25T10:55:34.906Z,11.20
2023-03-25T11:12:48.573Z,11.50
2023-03-25T11:15:31.130Z,11.50
2023-03-25T11:18:03.146Z,11.60
2023-03-25T11:20:49.937Z,11.60
2023-03-25T11:40:56.635Z,11.60
2023-03-25T11:43:29.498Z,12.40
2023-03-25T11:45:58.438Z,12.40
2023-03-25T11:48:32.953Z,12.60
2023-03-25T11:51:17.134Z,12.70
2023-03-25T11:53:51.293Z,13.00
2023-03-25T11:56:26.470Z,13.20
2023-03-25T11:59:01.828Z,13.20
2023-03-25T12:01:39.377Z,13.30
2023-03-25T12:04:13.155Z,13.20
2023-03-25T12:07:02.008Z,13.00
2023-03-25T12:09:32.837Z,12.70
2023-03-25T12:12:24.342Z,12.50
2023-03-25T12:15:05.521Z,12.30
2023-03-25T12:17:50.180Z,11.60
2023-03-25T12:20:33.363Z,11.00
2023-03-25T12:23:03.484Z,11.10
2023-03-25T12:25:53.674Z,11.00
2023-03-25T12:28:51.611Z,10.70
2023-03-25T12:31:32.476Z,10.90
2023-03-25T12:34:10.152Z,11.20
2023-03-25T12:36:54.400Z,11.70
2023-03-25T12:39:42.643Z,12.60
2023-03-25T12:42:21.834Z,13.10
2023-03-25T12:45:04.832Z,14.00
2023-03-25T12:47:36.831Z,14.00
2023-03-25T12:50:44.462Z,14.10
2023-03-25T12:53:32.855Z,13.90
2023-03-25T12:56:15.908Z,13.80
2023-03-25T12:59:02.355Z,13.40
2023-03-25T13:01:41.472Z,13.00
2023-03-25T13:07:33.455Z,11.40
2023-03-25T13:10:08.110Z,9.80
2023-03-25T13:13:00.247Z,8.80
2023-03-25T13:15:30.936Z,8.10
2023-03-25T13:18:04.503Z,7.80
2023-03-25T13:20:37.698Z,7.50
2023-03-25T13:23:10.438Z,7.30
2023-03-25T13:25:48.159Z,7.30
2023-03-25T13:28:20.187Z,7.20
2023-03-25T13:30:50.468Z,7.20
2023-03-25T13:33:28.739Z,7.10
2023-03-25T13:36:01.325Z,7.20
2023-03-25T13:38:34.002Z,7.40
2023-03-25T13:41:13.062Z,7.60
2023-03-25T13:43:50.510Z,7.80
2023-03-25T13:46:22.514Z,7.90
2023-03-25T13:48:55.301Z,8.10
2023-03-25T13:51:23.299Z,8.30
2023-03-25T13:53:56.177Z,8.40
2023-03-25T13:57:04.378Z,8.60
2023-03-25T14:00:00.323Z,8.70
2023-03-25T14:02:46.101Z,8.70
2023-03-25T14:05:41.193Z,9.10
2023-03-25T14:08:36.619Z,9.40
2023-03-25T14:11:18.053Z,9.60
2023-03-25T14:13:49.554Z,9.70
2023-03-25T14:16:23.384Z,9.90
2023-03-25T14:18:55.942Z,10.10
2023-03-25T14:21:32.452Z,10.10
2023-03-25T14:24:06.799Z,9.80
2023-03-25T14:26:37.786Z,10.10
2023-03-25T14:29:11.076Z,10.20
2023-03-25T14:31:38.978Z,10.00
2023-03-25T14:34:27.257Z,10.30
2023-03-25T14:37:19.935Z,11.60
2023-03-25T14:39:48.114Z,12.20
2023-03-25T14:42:30.952Z,12.80
2023-03-25T14:45:34.243Z,13.10
2023-03-25T14:48:04.637Z,11.70
2023-03-25T14:50:35.917Z,11.90
2023-03-25T14:53:07.325Z,12.10
2023-03-25T14:55:41.805Z,11.60
2023-03-25T14:58:25.815Z,11.20
2023-03-25T15:00:56.542Z,10.70
2023-03-25T15:03:33.798Z,10.70
2023-03-25T15:06:02.755Z,10.80
2023-03-25T15:08:36.933Z,10.90
2023-03-25T15:11:08.890Z,10.90
2023-03-25T15:13:39.819Z,10.90
2023-03-25T15:16:19.594Z,10.90
2023-03-25T15:19:09.057Z,10.70
2023-03-25T15:22:11.212Z,10.50
2023-03-25T15:24:41.282Z,10.50
2023-03-25T15:27:17.041Z,10.50
2023-03-25T15:29:56.649Z,10.50
2023-03-25T15:32:42.968Z,10.60
2023-03-25T15:35:36.582Z,11.00
2023-03-25T15:38:24.669Z,11.70
2023-03-25T15:41:10.786Z,11.90
2023-03-25T15:44:11.439Z,11.80
2023-03-25T15:47:29.707Z,12.20
2023-03-25T15:50:28.458Z,12.30
2023-03-25T15:53:41.505Z,12.60
2023-03-25T15:56:14.940Z,12.40
2023-03-25T15:58:51.418Z,12.70
2023-03-25T16:01:24.558Z,13.40
2023-03-25T16:03:59.216Z,14.00
2023-03-25T16:06:29.459Z,14.40
2023-03-25T16:08:59.485Z,15.20
2023-03-25T16:11:30.048Z,14.60
2023-03-25T16:14:08.375Z,14.80
2023-03-25T16:16:38.963Z,14.50
2023-03-25T16:19:12.356Z,13.80
2023-03-25T16:21:40.330Z,13.20
2023-03-25T16:24:12.619Z,12.60
2023-03-25T16:26:43.826Z,12.70
2023-03-25T16:29:30.390Z,12.70
2023-03-25T16:32:13.962Z,13.40
2023-03-25T16:34:42.064Z,12.90
2023-03-25T16:37:12.032Z,13.40
2023-03-25T16:39:42.029Z,12.60
2023-03-25T16:42:18.615Z,12.00
2023-03-25T16:44:49.531Z,11.80
2023-03-25T16:47:17.960Z,11.60
2023-03-25T16:49:50.060Z,12.00
2023-03-25T16:52:21.158Z,12.10
2023-03-25T16:57:42.286Z,11.80
2023-03-25T17:00:19.792Z,12.00
2023-03-25T17:02:57.135Z,11.90
2023-03-25T17:05:34.357Z,11.60
2023-03-25T17:08:19.435Z,11.40
2023-03-25T17:10:54.685Z,11.20
2023-03-25T17:13:33.218Z,11.10
2023-03-25T17:16:02.567Z,11.10
2023-03-25T17:18:35.835Z,11.00
2023-03-25T17:21:06.580Z,10.90
2023-03-25T17:23:36.544Z,10.80
2023-03-25T17:26:19.936Z,10.70
2023-03-25T17:29:13.269Z,10.70
2023-03-25T17:32:08.240Z,10.60
2023-03-25T17:34:42.812Z,10.60
2023-03-25T17:37:20.413Z,10.50
2023-03-25T17:39:51.054Z,10.40
2023-03-25T17:42:37.265Z,10.30
2023-03-25T17:45:50.447Z,10.10
2023-03-25T17:48:18.660Z,10.00
2023-03-25T17:51:09.624Z,9.80
2023-03-25T17:53:44.320Z,9.70
2023-03-25T17:56:13.842Z,9.60
2023-03-25T17:59:21.038Z,9.60
2023-03-25T18:02:02.198Z,9.60
2023-03-25T18:05:00.399Z,9.50
2023-03-25T18:16:17.541Z,9.70
2023-03-25T18:35:58.722Z,9.70
2023-03-25T18:39:01.616Z,8.90
2023-03-25T18:41:45.078Z,8.70
2023-03-25T18:44:20.107Z,8.60
2023-03-25T18:46:50.293Z,8.70
2023-03-25T18:49:23.307Z,8.70
2023-03-25T18:52:10.362Z,8.70
2023-03-25T18:55:02.905Z,8.80
2023-03-25T18:57:56.829Z,8.80
2023-03-25T19:00:27.795Z,8.80
2023-03-25T19:03:05.163Z,8.90
2023-03-25T19:06:20.443Z,8.80
2023-03-25T19:09:16.223Z,8.90
2023-03-25T19:11:52.400Z,8.90
2023-03-25T19:14:28.363Z,8.90
2023-03-25T19:17:03.922Z,9.00
2023-03-25T19:19:32.207Z,8.90
2023-03-25T19:22:00.292Z,8.80
2023-03-25T19:24:29.458Z,8.70
2023-03-25T19:26:57.459Z,8.60
2023-03-25T19:29:25.332Z,8.60
2023-03-25T19:31:53.249Z,8.60
2023-03-25T19:34:22.091Z,8.60
2023-03-25T19:36:50.245Z,8.70
2023-03-25T19:39:18.654Z,8.70
2023-03-25T19:41:49.470Z,8.70
2023-03-25T19:44:17.236Z,8.70
2023-03-25T19:46:45.096Z,8.60
2023-03-25T19:49:12.807Z,8.50
2023-03-25T19:51:43.089Z,8.40
2023-03-25T19:54:13.582Z,8.40
2023-03-25T19:56:42.137Z,8.40
2023-03-25T19:59:19.695Z,8.30
2023-03-25T20:01:49.777Z,8.30
2023-03-25T20:04:17.799Z,8.30
2023-03-25T20:06:59.925Z,8.30
2023-03-25T20:09:41.904Z,8.30
2023-03-25T20:12:41.507Z,8.30
2023-03-25T20:15:21.240Z,8.40
2023-03-25T20:17:55.436Z,8.50
2023-03-25T20:20:34.517Z,8.50
2023-03-25T20:23:08.577Z,8.50
2023-03-25T20:25:39.309Z,8.50
2023-03-25T20:28:07.078Z,8.50
2023-03-25T20:30:36.246Z,8.60
2023-03-25T20:33:04.501Z,8.60
2023-03-25T20:35:32.728Z,8.60
2023-03-25T20:38:00.533Z,8.60
2023-03-25T20:40:41.556Z,8.60
2023-03-25T20:43:36.958Z,8.60
2023-03-25T20:46:53.863Z,8.60
2023-03-25T20:49:24.180Z,8.70
2023-03-25T20:54:49.338Z,8.70
2023-03-25T20:57:17.460Z,8.80
2023-03-25T20:59:59.361Z,8.80
2023-03-25T21:02:41.665Z,8.80
2023-03-25T21:05:31.841Z,8.80
2023-03-25T21:07:59.686Z,8.80
2023-03-25T21:11:08.330Z,8.80
2023-03-25T21:14:05.942Z,8.80
2023-03-25T21:16:56.464Z,8.70
2023-03-25T21:23:44.608Z,8.70
2023-03-25T21:26:13.343Z,8.70
2023-03-25T21:29:00.649Z,8.60
2023-03-25T21:31:41.404Z,8.60
2023-03-25T21:34:45.991Z,8.60
2023-03-25T21:37:58.831Z,8.60
2023-03-25T21:40:49.158Z,8.60
2023-03-25T21:43:18.698Z,8.60
2023-03-25T21:53:52.040Z,8.60
2023-03-25T21:57:22.135Z,8.70
